createdAt,value
2018-09-18T09:17:05.852Z,96344.52
2018-09-18T09:19:34.399Z,96345.42
2018-09-18T09:22:03.041Z,96341.26
2018-09-18T09:24:31.562Z,96335.64
2018-09-18T09:27:00.123Z,96341.04
2018-09-18T09:29:28.750Z,96340.16
2018-09-18T09:31:57.548Z,96341.78
2018-09-18T09:34:26.228Z,96342.80
2018-09-18T09:36:54.908Z,96347.16
2018-09-18T09:39:23.526Z,96346.11
2018-09-18T09:41:52.068Z,96345.80
2018-09-18T09:44:20.645Z,96341.83
2018-09-18T09:46:49.276Z,96331.45
2018-09-18T09:49:17.809Z,96335.47
2018-09-18T09:51:46.332Z,96335.20
2018-09-18T09:54:14.994Z,96333.64
2018-09-18T09:56:43.556Z,96335.69
2018-09-18T09:59:12.147Z,96330.99
2018-09-18T10:01:47.857Z,96331.09
2018-09-18T10:04:16.929Z,96321.66
2018-09-18T10:06:45.525Z,96321.81
2018-09-18T10:09:14.348Z,96324.02
2018-09-18T10:11:42.875Z,96318.94
2018-09-18T10:14:11.744Z,96324.31
2018-09-18T10:16:40.974Z,96322.61
2018-09-18T10:19:09.685Z,96325.05
2018-09-18T10:21:38.256Z,96330.41
2018-09-18T10:24:06.558Z,96325.97
2018-09-18T10:26:35.385Z,96323.48
2018-09-18T10:29:03.886Z,96329.20
2018-09-18T10:31:32.658Z,96321.47
2018-09-18T10:34:01.218Z,96327.75
2018-09-18T10:36:29.800Z,96326.20
2018-09-18T10:38:58.408Z,96328.02
2018-09-18T10:41:27.441Z,96330.05
2018-09-18T10:43:55.912Z,96322.89
2018-09-18T10:46:24.492Z,96323.62
2018-09-18T10:48:55.857Z,96321.30
2018-09-18T10:51:24.739Z,96321.00
2018-09-18T10:53:53.553Z,96322.27
2018-09-18T10:56:22.556Z,96320.72
2018-09-18T10:58:51.508Z,96319.61
2018-09-18T11:01:20.434Z,96314.81
2018-09-18T11:03:48.999Z,96317.22
2018-09-18T11:06:17.622Z,96314.08
2018-09-18T11:08:46.311Z,96316.98
2018-09-18T11:11:14.902Z,96309.39
2018-09-18T11:13:43.446Z,96306.78
2018-09-18T11:16:12.158Z,96304.28
2018-09-18T11:18:40.600Z,96298.00
2018-09-18T11:21:09.212Z,96307.52
2018-09-18T11:23:37.804Z,96299.63
2018-09-18T11:26:06.426Z,96293.10
2018-09-18T11:28:35.149Z,96292.73
2018-09-18T11:31:03.821Z,96294.57
2018-09-18T11:33:32.390Z,96294.27
2018-09-18T11:36:00.975Z,96294.11
2018-09-18T11:38:29.568Z,96227.13
2018-09-18T11:40:58.141Z,96296.23
2018-09-18T11:43:26.711Z,96297.00
2018-09-18T11:45:55.574Z,96289.08
2018-09-18T11:48:23.983Z,96290.55
2018-09-18T11:50:52.536Z,96293.30
2018-09-18T11:53:21.880Z,96291.35
2018-09-18T11:55:50.443Z,96287.28
2018-09-18T11:58:19.305Z,96283.03
2018-09-18T12:00:48.130Z,96277.73
2018-09-18T12:03:16.740Z,96283.44
2018-09-18T12:05:45.263Z,96278.53
2018-09-18T12:08:13.799Z,96281.44
2018-09-18T12:10:42.468Z,96278.41
2018-09-18T12:13:11.375Z,96280.28
2018-09-18T12:15:39.936Z,96281.94
2018-09-18T12:18:08.477Z,96278.15
2018-09-18T12:20:37.250Z,96274.48
2018-09-18T12:23:05.803Z,96268.09
2018-09-18T12:25:34.385Z,96266.21
2018-09-18T12:28:02.964Z,96264.72
2018-09-18T12:30:31.520Z,96268.19
2018-09-18T12:33:00.069Z,96270.25
2018-09-18T12:35:28.633Z,96260.95
2018-09-18T12:37:57.242Z,96261.77
2018-09-18T12:40:25.796Z,96262.31
2018-09-18T12:42:54.342Z,96259.73
2018-09-18T12:45:23.000Z,96254.88
2018-09-18T12:47:51.594Z,96248.25
2018-09-18T12:50:20.297Z,96253.91
2018-09-18T12:52:48.701Z,96258.36
2018-09-18T12:55:18.244Z,96257.19
2018-09-18T12:57:46.879Z,96250.83
2018-09-18T13:00:15.447Z,96245.84
2018-09-18T13:02:43.965Z,96241.97
2018-09-18T13:05:13.365Z,96236.64
2018-09-18T13:07:41.940Z,96227.77
2018-09-18T13:10:10.495Z,96228.16
2018-09-18T13:12:39.031Z,96229.59
2018-09-18T13:15:07.727Z,96229.95
2018-09-18T13:17:36.408Z,96228.14
2018-09-18T13:20:05.277Z,96226.02
2018-09-18T13:22:34.020Z,96223.71
2018-09-18T13:25:02.611Z,96230.06
2018-09-18T13:27:31.305Z,96221.88
2018-09-18T13:29:59.900Z,96221.50
2018-09-18T13:32:28.455Z,96223.18
2018-09-18T13:34:57.003Z,96222.74
2018-09-18T13:37:25.535Z,96220.69
2018-09-18T13:39:54.094Z,96220.31
2018-09-18T13:42:22.667Z,96216.91
2018-09-18T13:44:51.323Z,96214.64
2018-09-18T13:47:19.886Z,96214.98
2018-09-18T13:49:48.480Z,96213.89
2018-09-18T13:52:17.078Z,96207.03
2018-09-18T13:54:45.647Z,96210.47
2018-09-18T13:57:14.422Z,96205.37
2018-09-18T14:02:33.283Z,96204.97
2018-09-18T14:05:01.849Z,96208.52
2018-09-18T14:07:30.400Z,96205.09
2018-09-18T14:09:59.040Z,96201.65
2018-09-18T14:12:27.721Z,96201.09
2018-09-18T14:14:56.346Z,96205.13
2018-09-18T14:17:24.843Z,96201.77
2018-09-18T14:19:53.386Z,96202.28
2018-09-18T14:22:22.057Z,96205.87
2018-09-18T14:24:50.588Z,96205.02
2018-09-18T14:27:19.203Z,96201.84
2018-09-18T14:29:47.756Z,96195.74
2018-09-18T14:32:16.444Z,96187.10
2018-09-18T14:34:45.030Z,96195.39
2018-09-18T14:37:13.922Z,96188.66
2018-09-18T14:39:42.498Z,96186.03
2018-09-18T14:42:11.065Z,96183.22
2018-09-18T14:44:39.659Z,96188.27
2018-09-18T14:47:08.210Z,96198.72
2018-09-18T14:49:36.772Z,96198.95
2018-09-18T14:52:05.386Z,96199.03
2018-09-18T14:54:34.065Z,96196.20
2018-09-18T14:57:02.617Z,96198.43
2018-09-18T14:59:31.316Z,96195.86
2018-09-18T15:01:59.920Z,96192.08
2018-09-18T15:04:28.481Z,96178.45
2018-09-18T15:09:47.897Z,96171.00
2018-09-18T15:12:16.460Z,96176.78
2018-09-18T15:14:45.092Z,96173.98
2018-09-18T15:17:13.844Z,96166.64
2018-09-18T15:19:42.364Z,96174.81
2018-09-18T15:22:10.892Z,96177.88
2018-09-18T15:24:39.444Z,96173.92
2018-09-18T15:27:07.989Z,96176.24
2018-09-18T15:29:36.627Z,96181.54
2018-09-18T15:32:05.177Z,96178.50
2018-09-18T15:34:34.028Z,96178.82
2018-09-18T15:37:02.685Z,96176.70
2018-09-18T15:39:31.260Z,96179.26
2018-09-18T15:41:59.836Z,96180.47
2018-09-18T15:44:28.402Z,96183.48
2018-09-18T15:46:57.023Z,96192.09
2018-09-18T15:49:25.624Z,96187.57
2018-09-18T15:54:44.509Z,96188.50
2018-09-18T15:57:13.245Z,96187.27
2018-09-18T15:59:41.846Z,96182.13
2018-09-18T16:02:10.821Z,96180.62
2018-09-18T16:04:39.356Z,96184.60
2018-09-18T16:07:07.944Z,96181.78
2018-09-18T16:09:36.579Z,96175.22
2018-09-18T16:12:05.151Z,96183.98
2018-09-18T16:14:33.795Z,96182.98
2018-09-18T16:17:02.905Z,96177.48
2018-09-18T16:22:34.649Z,96175.24
2018-09-18T16:25:03.260Z,96182.31
2018-09-18T16:27:31.816Z,96175.66
2018-09-18T16:30:00.476Z,96177.03
2018-09-18T16:32:29.061Z,96182.46
2018-09-18T16:34:57.640Z,96177.88
2018-09-18T16:37:26.196Z,96183.19
2018-09-18T16:39:54.772Z,96195.56
2018-09-18T16:42:25.604Z,96194.46
2018-09-18T16:44:54.157Z,96187.59
2018-09-18T16:47:22.731Z,96198.78
2018-09-18T16:49:51.269Z,96193.02
2018-09-18T16:52:20.676Z,96190.93
2018-09-18T16:54:49.430Z,96192.11
2018-09-18T16:57:18.000Z,96188.39
2018-09-18T16:59:46.912Z,96193.44
2018-09-18T17:02:15.496Z,96195.02
2018-09-18T17:04:44.033Z,96198.09
2018-09-18T17:07:13.057Z,96201.20
2018-09-18T17:09:41.628Z,96209.84
2018-09-18T17:12:10.275Z,96205.27
2018-09-18T17:14:38.825Z,96202.28
2018-09-18T17:17:07.447Z,96203.78
2018-09-18T17:22:26.314Z,96196.47
2018-09-18T17:24:54.882Z,96206.63
2018-09-18T17:27:23.454Z,96214.70
2018-09-18T17:29:51.992Z,96214.99
2018-09-18T17:32:20.591Z,96217.12
2018-09-18T17:34:49.407Z,96225.11
2018-09-18T17:37:17.957Z,96228.11
2018-09-18T17:39:47.362Z,96228.59
2018-09-18T17:42:15.977Z,96220.73
2018-09-18T17:44:44.604Z,96225.42
2018-09-18T17:47:13.587Z,96230.24
2018-09-18T17:49:42.150Z,96229.31
2018-09-18T17:52:10.914Z,96237.38
2018-09-18T17:54:39.489Z,96236.58
2018-09-18T17:57:08.085Z,96235.58
2018-09-18T17:59:38.109Z,96233.71
2018-09-18T18:02:07.824Z,96231.85
2018-09-18T18:04:36.388Z,96232.62
2018-09-18T18:07:05.073Z,96234.45
2018-09-18T18:09:33.608Z,96240.61
2018-09-18T18:12:05.211Z,96241.25
2018-09-18T18:14:33.846Z,96247.55
2018-09-18T18:17:05.034Z,96244.31
2018-09-18T18:19:33.707Z,96250.23
2018-09-18T18:22:02.315Z,96248.06
2018-09-18T18:24:30.907Z,96251.84
2018-09-18T18:26:59.535Z,96254.14
2018-09-18T18:29:28.147Z,96260.67
2018-09-18T18:31:56.808Z,96262.32
2018-09-18T18:34:25.450Z,96260.91
2018-09-18T18:36:54.053Z,96261.52
2018-09-18T18:39:22.656Z,96257.32
2018-09-18T18:41:51.376Z,96260.39
2018-09-18T18:44:19.946Z,96265.73
2018-09-18T18:46:48.532Z,96265.02
2018-09-18T18:49:17.385Z,96267.25
2018-09-18T18:51:45.905Z,96262.52
2018-09-18T18:54:14.468Z,96268.27
2018-09-18T18:56:43.190Z,96274.78
2018-09-18T18:59:11.715Z,96276.78
2018-09-18T19:01:40.394Z,96284.11
2018-09-18T19:04:08.957Z,96282.23
2018-09-18T19:06:37.550Z,96278.96
2018-09-18T19:09:09.723Z,96286.32
2018-09-18T19:11:38.543Z,96277.87
2018-09-18T19:14:07.120Z,96285.70
2018-09-18T19:16:35.778Z,96283.64
2018-09-18T19:19:04.512Z,96285.25
2018-09-18T19:21:33.048Z,96286.45
2018-09-18T19:24:01.599Z,96292.67
2018-09-18T19:26:30.272Z,96295.92
2018-09-18T19:28:58.859Z,96297.75
2018-09-18T19:31:27.604Z,96307.75
2018-09-18T19:33:56.211Z,96306.98
2018-09-18T19:36:24.873Z,96306.14
2018-09-18T19:38:53.539Z,96313.77
2018-09-18T19:41:22.101Z,96315.41
2018-09-18T19:43:50.705Z,96315.44
2018-09-18T19:46:19.249Z,96310.59
2018-09-18T19:48:47.798Z,96309.47
2018-09-18T19:51:16.435Z,96309.53
2018-09-18T19:53:45.047Z,96312.75
2018-09-18T19:56:13.752Z,96307.19
2018-09-18T19:58:43.247Z,96308.70
2018-09-18T20:01:11.800Z,96308.78
2018-09-18T20:03:40.391Z,96311.69
2018-09-18T20:06:08.948Z,96315.78
2018-09-18T20:08:37.502Z,96311.23
2018-09-18T20:11:06.140Z,96309.52
2018-09-18T20:13:34.766Z,96313.22
2018-09-18T20:16:03.566Z,96312.53
2018-09-18T20:18:32.205Z,96313.53
2018-09-18T20:21:00.775Z,96317.13
2018-09-18T20:23:29.295Z,96319.40
2018-09-18T20:25:57.854Z,96317.64
2018-09-18T20:28:26.505Z,96321.55
2018-09-18T20:30:55.112Z,96320.40
2018-09-18T20:33:23.731Z,96324.61
2018-09-18T20:35:52.388Z,96322.03
2018-09-18T20:38:20.986Z,96331.38
2018-09-18T20:40:49.647Z,96334.81
2018-09-18T20:43:18.437Z,96328.50
2018-09-18T20:45:47.007Z,96332.11
2018-09-18T20:48:15.608Z,96328.34
2018-09-18T20:50:44.327Z,96335.50
2018-09-18T20:53:16.121Z,96328.39
2018-09-18T20:55:44.989Z,96333.27
2018-09-18T20:58:13.564Z,96334.45
2018-09-18T21:00:42.129Z,96338.41
2018-09-18T21:03:10.879Z,96330.62
2018-09-18T21:05:39.481Z,96331.62
2018-09-18T21:08:08.060Z,96325.76
2018-09-18T21:10:36.606Z,96325.56
2018-09-18T21:13:05.327Z,96338.75
2018-09-18T21:15:34.017Z,96338.47
2018-09-18T21:18:02.676Z,96336.09
2018-09-18T21:20:31.264Z,96339.00
2018-09-18T21:22:59.840Z,96335.63
2018-09-18T21:26:17.964Z,96338.18
2018-09-18T21:28:46.524Z,96337.53
2018-09-18T21:34:06.661Z,96341.00
2018-09-18T21:36:36.027Z,96339.22
2018-09-18T21:39:07.489Z,96338.45
2018-09-18T21:41:36.153Z,96346.92
2018-09-18T21:44:04.768Z,96347.44
2018-09-18T21:46:33.342Z,96352.95
2018-09-18T21:49:01.956Z,96357.03
2018-09-18T21:51:30.558Z,96357.67
2018-09-18T21:53:59.159Z,96362.56
2018-09-18T21:56:27.712Z,96360.31
2018-09-18T21:58:56.246Z,96359.50
2018-09-18T22:01:41.053Z,96359.84
2018-09-18T22:04:16.434Z,96360.70
2018-09-18T22:06:45.086Z,96363.95
2018-09-18T22:09:13.916Z,96356.48
2018-09-18T22:11:42.543Z,96355.84
2018-09-18T22:14:11.095Z,96361.52
2018-09-18T22:16:39.798Z,96365.10
2018-09-18T22:27:52.136Z,96370.81
2018-09-18T22:30:20.779Z,96377.97
2018-09-18T22:32:49.321Z,96382.67
2018-09-18T22:35:18.296Z,96385.92
2018-09-18T22:37:46.900Z,96385.92
2018-09-18T22:40:15.472Z,96389.34
2018-09-18T22:42:44.028Z,96389.00
2018-09-18T22:45:12.612Z,96393.22
2018-09-18T22:47:41.140Z,96429.91
2018-09-18T22:50:09.753Z,96414.28
2018-09-18T22:52:38.277Z,96420.11
2018-09-18T22:55:06.907Z,96418.28
2018-09-18T22:57:35.558Z,96420.56
2018-09-18T23:00:04.446Z,96408.71
2018-09-18T23:02:33.034Z,96415.58
2018-09-18T23:05:02.221Z,96398.58
2018-09-18T23:07:30.818Z,96400.20
2018-09-18T23:09:59.647Z,96398.44
2018-09-18T23:12:28.245Z,96390.97
2018-09-18T23:14:56.867Z,96393.90
2018-09-18T23:17:25.658Z,96393.89
2018-09-18T23:19:54.408Z,96391.11
2018-09-18T23:22:23.455Z,96395.02
2018-09-18T23:24:52.155Z,96402.80
2018-09-18T23:27:20.779Z,96397.10
2018-09-18T23:29:49.480Z,96394.34
2018-09-18T23:32:18.267Z,96399.00
2018-09-18T23:34:46.841Z,96393.62
2018-09-18T23:37:15.669Z,96393.27
2018-09-18T23:39:44.258Z,96389.70
2018-09-18T23:42:12.908Z,96393.31
2018-09-18T23:44:41.490Z,96400.12
2018-09-18T23:47:10.273Z,96392.67
2018-09-18T23:49:38.987Z,96396.75
2018-09-18T23:52:07.686Z,96393.68
2018-09-18T23:54:36.267Z,96391.38
2018-09-18T23:57:04.865Z,96392.34
2018-09-18T23:59:34.195Z,96384.88
